createdAt,value
2023-04-21T00:00:18.094Z,5.2
2023-04-21T00:01:19.051Z,5.2
2023-04-21T00:02:20.247Z,5.2
2023-04-21T00:03:21.744Z,5.2
2023-04-21T00:04:23.856Z,5.1
2023-04-21T00:05:25.538Z,5.1
2023-04-21T00:06:26.946Z,5.1
2023-04-21T00:07:28.093Z,5.1
2023-04-21T00:08:29.257Z,5.1
2023-04-21T00:09:30.232Z,5.1
2023-04-21T00:10:31.422Z,5.1
2023-04-21T00:11:32.560Z,5.1
2023-04-21T00:12:33.727Z,5.1
2023-04-21T00:13:34.888Z,5.1
2023-04-21T00:14:36.054Z,5.1
2023-04-21T00:15:37.255Z,5
2023-04-21T00:16:38.474Z,5
2023-04-21T00:17:40.224Z,5
2023-04-21T00:18:41.344Z,5
2023-04-21T00:19:42.506Z,5
2023-04-21T00:20:43.680Z,5
2023-04-21T00:21:44.845Z,5
2023-04-21T00:22:46.005Z,5
2023-04-21T00:23:47.172Z,5
2023-04-21T00:24:48.344Z,5
2023-04-21T00:25:49.523Z,4.9
2023-04-21T00:26:50.351Z,4.9
2023-04-21T00:27:51.324Z,4.9
2023-04-21T00:28:52.293Z,4.9
2023-04-21T00:29:53.458Z,4.9
2023-04-21T00:30:54.664Z,4.9
2023-04-21T00:31:55.861Z,4.9
2023-04-21T00:32:56.827Z,4.9
2023-04-21T00:33:58.096Z,4.9
2023-04-21T00:34:59.104Z,4.9
2023-04-21T00:35:59.734Z,4.9
2023-04-21T00:37:00.886Z,4.9
2023-04-21T00:38:01.863Z,4.9
2023-04-21T00:39:03.026Z,4.9
2023-04-21T00:40:04.022Z,4.8
2023-04-21T00:41:05.213Z,4.8
2023-04-21T00:42:06.370Z,4.8
2023-04-21T00:43:07.530Z,4.8
2023-04-21T00:44:08.548Z,4.8
2023-04-21T00:45:09.519Z,4.8
2023-04-21T00:46:10.535Z,4.8
2023-04-21T00:47:11.895Z,4.7
2023-04-21T00:48:12.857Z,4.7
2023-04-21T00:49:14.019Z,4.7
2023-04-21T00:50:15.188Z,4.7
2023-04-21T00:51:16.214Z,4.7
2023-04-21T00:52:16.969Z,4.7
2023-04-21T00:53:18.132Z,4.7
2023-04-21T00:54:19.107Z,4.6
2023-04-21T00:55:20.073Z,4.6
2023-04-21T00:56:21.257Z,4.6
2023-04-21T00:57:22.410Z,4.6
2023-04-21T00:58:23.577Z,4.6
2023-04-21T00:59:24.739Z,4.6
2023-04-21T01:00:25.912Z,4.6
2023-04-21T01:01:27.161Z,4.6
2023-04-21T01:02:28.531Z,4.6
2023-04-21T01:03:30.221Z,4.6
2023-04-21T01:04:32.052Z,4.6
2023-04-21T01:05:32.822Z,4.6
2023-04-21T01:06:33.849Z,4.6
2023-04-21T01:07:35.007Z,4.5
2023-04-21T01:08:35.984Z,4.5
2023-04-21T01:09:37.146Z,4.5
2023-04-21T01:10:38.159Z,4.5
2023-04-21T01:11:39.333Z,4.5
2023-04-21T01:12:40.296Z,4.5
2023-04-21T01:13:41.277Z,4.5
2023-04-21T01:14:42.439Z,4.5
2023-04-21T01:15:43.599Z,4.5
2023-04-21T01:16:44.821Z,4.5
2023-04-21T01:17:46.209Z,4.5
2023-04-21T01:18:47.506Z,4.5
2023-04-21T01:19:48.675Z,4.4
2023-04-21T01:20:49.842Z,4.4
2023-04-21T01:21:51.008Z,4.4
2023-04-21T01:22:52.186Z,4.4
2023-04-21T01:23:53.333Z,4.4
2023-04-21T01:24:54.505Z,4.4
2023-04-21T01:25:55.669Z,4.4
2023-04-21T01:26:56.848Z,4.4
2023-04-21T01:27:58.001Z,4.4
2023-04-21T01:28:59.166Z,4.4
2023-04-21T01:30:00.330Z,4.4
2023-04-21T01:31:01.506Z,4.3
2023-04-21T01:32:02.780Z,4.3
2023-04-21T01:33:04.045Z,4.3
2023-04-21T01:34:05.064Z,4.3
2023-04-21T01:35:06.045Z,4.3
2023-04-21T01:36:07.212Z,4.3
2023-04-21T01:37:08.383Z,4.3
2023-04-21T01:38:09.543Z,4.2
2023-04-21T01:39:10.709Z,4.2
2023-04-21T01:40:11.876Z,4.2
2023-04-21T01:41:13.056Z,4.2
2023-04-21T01:42:14.217Z,4.2
2023-04-21T01:43:15.372Z,4.2
2023-04-21T01:44:16.539Z,4.2
2023-04-21T01:45:17.706Z,4.2
2023-04-21T01:46:18.913Z,4.1
2023-04-21T01:47:20.269Z,4.1
2023-04-21T01:48:21.412Z,4.1
2023-04-21T01:49:22.580Z,4.1
2023-04-21T01:50:23.738Z,4.1
2023-04-21T01:51:25.121Z,4.1
2023-04-21T01:52:26.285Z,4.1
2023-04-21T01:53:27.441Z,4
2023-04-21T01:54:28.610Z,4
2023-04-21T01:55:29.784Z,4
2023-04-21T01:56:31.014Z,4
2023-04-21T01:57:32.218Z,4
2023-04-21T01:58:33.385Z,4
2023-04-21T01:59:34.550Z,4
2023-04-21T02:00:35.723Z,4
2023-04-21T02:01:36.921Z,4
2023-04-21T02:02:38.357Z,4
2023-04-21T02:03:40.111Z,4
2023-04-21T02:04:41.863Z,4
2023-04-21T02:05:43.320Z,4
2023-04-21T02:06:44.480Z,4
2023-04-21T02:07:45.635Z,4
2023-04-21T02:08:46.796Z,4
2023-04-21T02:09:47.976Z,4
2023-04-21T02:10:49.140Z,4
2023-04-21T02:11:50.321Z,3.9
2023-04-21T02:12:51.474Z,3.9
2023-04-21T02:13:52.640Z,3.9
2023-04-21T02:14:53.800Z,3.9
2023-04-21T02:16:02.665Z,3.9
2023-04-21T02:17:15.171Z,3.9
2023-04-21T02:18:16.346Z,3.9
2023-04-21T02:19:17.787Z,3.8
2023-04-21T02:20:19.890Z,3.8
2023-04-21T02:21:21.053Z,3.8
2023-04-21T02:22:22.245Z,3.8
2023-04-21T02:23:23.390Z,3.7
2023-04-21T02:24:24.552Z,3.7
2023-04-21T02:25:25.730Z,3.7
2023-04-21T02:26:26.890Z,3.7
2023-04-21T02:27:28.066Z,3.6
2023-04-21T02:28:29.228Z,3.6
2023-04-21T02:29:30.392Z,3.6
2023-04-21T02:30:31.556Z,3.6
2023-04-21T02:31:33.589Z,3.6
2023-04-21T02:33:03.524Z,3.5
2023-04-21T02:34:04.690Z,3.5
2023-04-21T02:35:05.838Z,3.5
2023-04-21T02:36:06.813Z,3.5
2023-04-21T02:37:07.994Z,3.4
2023-04-21T02:38:09.040Z,3.4
2023-04-21T02:39:10.201Z,3.4
2023-04-21T02:40:11.373Z,3.4
2023-04-21T02:41:12.539Z,3.4
2023-04-21T02:42:13.712Z,3.4
2023-04-21T02:43:14.872Z,3.4
2023-04-21T02:44:16.034Z,3.3
2023-04-21T02:45:17.199Z,3.3
2023-04-21T02:46:18.377Z,3.3
2023-04-21T02:47:19.537Z,3.3
2023-04-21T02:48:20.803Z,3.3
2023-04-21T02:49:22.083Z,3.3
2023-04-21T02:50:23.302Z,3.3
2023-04-21T02:51:24.465Z,3.3
2023-04-21T02:52:25.636Z,3.2
2023-04-21T02:53:26.818Z,3.2
2023-04-21T02:54:27.969Z,3.2
2023-04-21T02:55:29.129Z,3.2
2023-04-21T02:56:30.293Z,3.2
2023-04-21T02:57:31.467Z,3.2
2023-04-21T02:58:32.625Z,3.2
2023-04-21T02:59:33.792Z,3.1
2023-04-21T03:00:34.796Z,3.1
2023-04-21T03:01:35.969Z,3.1
2023-04-21T03:02:37.212Z,3.1
2023-04-21T03:03:38.788Z,3.1
2023-04-21T03:04:40.411Z,3.1
2023-04-21T03:05:41.789Z,3.1
2023-04-21T03:06:42.960Z,3.1
2023-04-21T03:07:44.132Z,3.1
2023-04-21T03:08:45.289Z,3.1
2023-04-21T03:09:46.451Z,3.1
2023-04-21T03:10:47.427Z,3.1
2023-04-21T03:11:48.599Z,3.1
2023-04-21T03:12:49.772Z,3.1
2023-04-21T03:13:50.923Z,3.1
2023-04-21T03:14:52.089Z,3.1
2023-04-21T03:15:53.257Z,3.1
2023-04-21T03:16:54.466Z,3.1
2023-04-21T03:17:56.200Z,3.1
2023-04-21T03:18:57.581Z,3.1
2023-04-21T03:19:58.636Z,3.1
2023-04-21T03:20:59.679Z,3.1
2023-04-21T03:22:00.844Z,3.1
2023-04-21T03:23:02.036Z,3.1
2023-04-21T03:25:09.062Z,3.1
2023-04-21T03:26:10.219Z,3.1
2023-04-21T03:27:11.377Z,3.1
2023-04-21T03:28:12.554Z,3.1
2023-04-21T03:29:13.711Z,3
2023-04-21T03:30:14.684Z,3
2023-04-21T03:31:15.669Z,3
2023-04-21T03:32:16.882Z,3
2023-04-21T03:33:18.259Z,3
2023-04-21T03:34:19.224Z,3
2023-04-21T03:35:20.424Z,3
2023-04-21T03:36:21.479Z,3
2023-04-21T03:37:22.487Z,3
2023-04-21T03:38:23.460Z,3
2023-04-21T03:39:24.726Z,3
2023-04-21T03:40:26.696Z,3
2023-04-21T03:41:27.536Z,3
2023-04-21T03:42:28.688Z,3
2023-04-21T03:43:29.857Z,3
2023-04-21T03:44:31.027Z,3
2023-04-21T03:45:32.025Z,3
2023-04-21T03:46:32.921Z,2.9
2023-04-21T03:47:34.134Z,2.9
2023-04-21T03:48:35.420Z,2.9
2023-04-21T03:49:36.396Z,2.9
2023-04-21T03:50:37.651Z,2.9
2023-04-21T03:51:38.814Z,2.9
2023-04-21T03:52:39.962Z,2.9
2023-04-21T03:53:41.128Z,2.9
2023-04-21T03:54:42.299Z,2.9
2023-04-21T03:55:43.455Z,2.9
2023-04-21T03:56:44.285Z,2.9
2023-04-21T03:57:45.446Z,2.9
2023-04-21T03:58:46.603Z,2.8
2023-04-21T03:59:47.622Z,2.8
2023-04-21T04:00:48.785Z,2.8
2023-04-21T04:01:49.983Z,2.8
2023-04-21T04:02:51.066Z,2.8
2023-04-21T04:03:52.787Z,2.8
2023-04-21T04:04:54.561Z,2.7
2023-04-21T04:05:55.994Z,2.7
2023-04-21T04:06:56.832Z,2.7
2023-04-21T04:07:57.986Z,2.7
2023-04-21T04:08:59.155Z,2.7
2023-04-21T04:10:00.180Z,2.7
2023-04-21T04:11:01.335Z,2.7
2023-04-21T04:12:02.366Z,2.7
2023-04-21T04:13:03.541Z,2.7
2023-04-21T04:14:04.518Z,2.7
2023-04-21T04:15:05.672Z,2.7
2023-04-21T04:16:06.753Z,2.8
2023-04-21T04:17:08.255Z,2.8
2023-04-21T04:18:09.421Z,2.8
2023-04-21T04:19:10.497Z,2.8
2023-04-21T04:20:14.163Z,2.8
2023-04-21T04:21:15.406Z,2.8
2023-04-21T04:22:16.355Z,2.8
2023-04-21T04:23:17.508Z,2.8
2023-04-21T04:24:18.672Z,2.9
2023-04-21T04:25:19.708Z,2.8
2023-04-21T04:26:20.866Z,2.9
2023-04-21T04:27:21.852Z,2.9
2023-04-21T04:28:23.014Z,2.9
2023-04-21T04:29:23.817Z,2.9
2023-04-21T04:30:24.987Z,2.9
2023-04-21T04:31:26.169Z,2.9
2023-04-21T04:32:27.421Z,2.9
2023-04-21T04:33:28.307Z,2.9
2023-04-21T04:34:29.475Z,2.9
2023-04-21T04:35:30.637Z,2.9
2023-04-21T04:36:31.633Z,2.9
2023-04-21T04:37:33.177Z,2.9
2023-04-21T04:38:34.300Z,3
2023-04-21T04:39:35.469Z,3
2023-04-21T04:40:36.630Z,3
2023-04-21T04:41:37.601Z,3
2023-04-21T04:42:38.775Z,3
2023-04-21T04:43:39.938Z,3.1
2023-04-21T04:44:40.905Z,3.1
2023-04-21T04:45:41.868Z,3.1
2023-04-21T04:46:43.080Z,3.1
2023-04-21T04:47:44.009Z,3.1
2023-04-21T04:48:45.044Z,3.1
2023-04-21T04:49:46.215Z,3.1
2023-04-21T04:50:47.395Z,3.2
2023-04-21T04:51:48.566Z,3.2
2023-04-21T04:52:49.744Z,3.2
2023-04-21T04:53:50.894Z,3.2
2023-04-21T04:54:52.058Z,3.2
2023-04-21T04:55:53.041Z,3.2
2023-04-21T04:56:54.199Z,3.3
2023-04-21T04:57:55.228Z,3.3
2023-04-21T04:58:56.380Z,3.3
2023-04-21T04:59:57.388Z,3.3
2023-04-21T05:00:58.398Z,3.3
2023-04-21T05:01:59.432Z,3.4
2023-04-21T05:03:00.895Z,3.4
2023-04-21T05:04:02.648Z,3.4
2023-04-21T05:05:04.597Z,3.4
2023-04-21T05:06:06.216Z,3.4
2023-04-21T05:07:07.406Z,3.5
2023-04-21T05:08:08.568Z,3.5
2023-04-21T05:09:09.718Z,3.5
2023-04-21T05:10:10.883Z,3.5
2023-04-21T05:11:12.045Z,3.5
2023-04-21T05:12:13.213Z,3.6
2023-04-21T05:13:14.207Z,3.6
2023-04-21T05:14:15.348Z,3.6
2023-04-21T05:15:16.521Z,3.6
2023-04-21T05:16:17.690Z,3.7
2023-04-21T05:17:18.861Z,3.7
2023-04-21T05:18:20.055Z,3.7
2023-04-21T05:19:21.191Z,3.7
2023-04-21T05:20:22.169Z,3.8
2023-04-21T05:21:23.326Z,3.8
2023-04-21T05:22:24.399Z,3.8
2023-04-21T05:23:25.364Z,3.9
2023-04-21T05:24:26.511Z,3.9
2023-04-21T05:25:27.675Z,4
2023-04-21T05:26:28.847Z,4
2023-04-21T05:27:30.009Z,4
2023-04-21T05:28:30.997Z,4.1
2023-04-21T05:29:32.287Z,4.1
2023-04-21T05:30:33.452Z,4.1
2023-04-21T05:31:34.623Z,4.2
2023-04-21T05:32:36.085Z,4.2
2023-04-21T05:33:37.374Z,4.3
2023-04-21T05:34:38.529Z,4.3
2023-04-21T05:35:39.696Z,4.4
2023-04-21T05:36:40.857Z,4.4
2023-04-21T05:37:42.061Z,4.5
2023-04-21T05:38:43.467Z,4.6
2023-04-21T05:39:44.597Z,4.6
2023-04-21T05:40:45.758Z,4.7
2023-04-21T05:41:46.926Z,4.8
2023-04-21T05:42:47.937Z,4.8
2023-04-21T05:43:49.120Z,4.9
2023-04-21T05:44:50.072Z,5
2023-04-21T05:45:51.305Z,5
2023-04-21T05:46:52.333Z,5.1
2023-04-21T05:47:53.515Z,5.2
2023-04-21T05:48:54.723Z,5.3
2023-04-21T05:49:55.700Z,5.3
2023-04-21T05:50:56.597Z,5.4
2023-04-21T05:51:57.766Z,5.5
2023-04-21T05:52:58.955Z,5.6
2023-04-21T05:54:00.116Z,5.6
2023-04-21T05:55:01.263Z,5.7
2023-04-21T05:56:02.419Z,5.8
2023-04-21T05:57:03.586Z,5.9
2023-04-21T05:58:04.750Z,5.9
2023-04-21T05:59:06.009Z,6
2023-04-21T06:00:07.139Z,6.1
2023-04-21T06:01:08.294Z,6.1
2023-04-21T06:02:09.528Z,6.2
2023-04-21T06:03:11.141Z,6.2
2023-04-21T06:04:12.655Z,6.3
2023-04-21T06:05:14.730Z,6.4
2023-04-21T06:06:16.023Z,6.4
2023-04-21T06:07:18.649Z,6.5
2023-04-21T06:08:19.913Z,6.5
2023-04-21T06:09:21.084Z,6.6
2023-04-21T06:10:22.217Z,6.7
2023-04-21T06:11:23.471Z,6.7
2023-04-21T06:12:24.647Z,6.8
2023-04-21T06:13:25.798Z,6.9
2023-04-21T06:14:26.995Z,6.9
2023-04-21T06:15:28.136Z,7
2023-04-21T06:16:29.351Z,7
2023-04-21T06:17:30.610Z,7.1
2023-04-21T06:18:31.878Z,7.2
2023-04-21T06:19:33.050Z,7.2
2023-04-21T06:20:34.010Z,7.3
2023-04-21T06:21:35.181Z,7.3
2023-04-21T06:22:36.345Z,7.4
2023-04-21T06:23:37.533Z,7.5
2023-04-21T06:24:38.516Z,7.5
2023-04-21T06:25:39.686Z,7.6
2023-04-21T06:26:40.852Z,7.7
2023-04-21T06:27:42.016Z,7.7
2023-04-21T06:28:42.994Z,7.8
2023-04-21T06:29:44.166Z,7.8
2023-04-21T06:30:45.323Z,7.9
2023-04-21T06:31:46.196Z,8
2023-04-21T06:32:47.505Z,8
2023-04-21T06:33:48.776Z,8.1
2023-04-21T06:34:49.959Z,8.2
2023-04-21T06:35:50.720Z,8.2
2023-04-21T06:36:51.876Z,8.3
2023-04-21T06:37:53.040Z,8.4
2023-04-21T06:38:54.299Z,8.4
2023-04-21T06:39:55.519Z,8.5
2023-04-21T06:40:56.643Z,8.6
2023-04-21T06:41:57.453Z,8.6
2023-04-21T06:42:58.234Z,8.7
2023-04-21T06:43:59.406Z,8.8
2023-04-21T06:45:00.577Z,8.9
2023-04-21T06:46:01.737Z,8.9
2023-04-21T06:47:02.918Z,9
2023-04-21T06:48:04.124Z,9.1
2023-04-21T06:49:05.323Z,9.2
2023-04-21T06:50:06.506Z,9.3
2023-04-21T06:51:07.498Z,9.4
2023-04-21T06:52:08.506Z,9.4
2023-04-21T06:53:09.513Z,9.5
2023-04-21T06:54:10.703Z,9.6
2023-04-21T06:55:11.866Z,9.6
2023-04-21T06:56:13.021Z,9.7
2023-04-21T06:57:14.195Z,9.8
2023-04-21T06:58:14.997Z,9.8
2023-04-21T06:59:16.010Z,9.9
2023-04-21T07:00:17.163Z,10
2023-04-21T07:01:18.377Z,10
2023-04-21T07:02:19.672Z,10.1
2023-04-21T07:03:20.676Z,10.1
2023-04-21T07:04:22.363Z,10.2
2023-04-21T07:05:23.659Z,10.2
2023-04-21T07:06:24.820Z,10.3
2023-04-21T07:07:26.020Z,10.3
2023-04-21T07:08:27.010Z,10.4
2023-04-21T07:09:28.208Z,10.5
2023-04-21T07:10:29.385Z,10.5
2023-04-21T07:11:30.522Z,10.6
2023-04-21T07:12:31.697Z,10.6
2023-04-21T07:13:32.856Z,10.7
2023-04-21T07:14:33.833Z,10.7
2023-04-21T07:15:34.802Z,10.8
2023-04-21T07:16:35.650Z,10.8
2023-04-21T07:17:36.912Z,10.9
2023-04-21T07:18:38.147Z,10.9
2023-04-21T07:19:39.315Z,11
2023-04-21T07:20:40.488Z,11
2023-04-21T07:21:41.645Z,11
2023-04-21T07:22:42.810Z,11.1
2023-04-21T07:23:43.979Z,11.1
2023-04-21T07:24:45.171Z,11.2
2023-04-21T07:25:46.124Z,11.2
2023-04-21T07:26:47.290Z,11.3
2023-04-21T07:27:48.452Z,11.3
2023-04-21T07:28:49.629Z,11.3
2023-04-21T07:29:50.784Z,11.4
2023-04-21T07:30:52.025Z,11.4
2023-04-21T07:31:53.258Z,11.5
2023-04-21T07:32:54.242Z,11.5
2023-04-21T07:33:55.282Z,11.6
2023-04-21T07:34:56.239Z,11.6
2023-04-21T07:35:57.425Z,11.7
2023-04-21T07:36:58.936Z,11.7
2023-04-21T07:38:00.155Z,11.8
2023-04-21T07:39:01.333Z,11.8
2023-04-21T07:40:03.208Z,11.9
2023-04-21T07:41:04.611Z,11.9
2023-04-21T07:42:05.739Z,11.9
2023-04-21T07:43:06.711Z,12
2023-04-21T07:44:07.871Z,12.1
2023-04-21T07:45:09.045Z,12.1
2023-04-21T07:46:10.277Z,12.1
2023-04-21T07:47:11.561Z,12.2
2023-04-21T07:48:12.750Z,12.2
2023-04-21T07:49:13.718Z,12.3
2023-04-21T07:50:14.879Z,12.3
2023-04-21T07:51:16.064Z,12.4
2023-04-21T07:52:17.222Z,12.4
2023-04-21T07:53:18.396Z,12.4
2023-04-21T07:54:19.552Z,12.5
2023-04-21T07:55:20.745Z,12.5
2023-04-21T07:56:21.769Z,12.5
2023-04-21T07:57:22.914Z,12.6
2023-04-21T07:58:23.888Z,12.6
2023-04-21T07:59:25.421Z,12.6
2023-04-21T08:00:26.734Z,12.7
2023-04-21T08:01:27.707Z,12.7
2023-04-21T08:02:28.927Z,12.8
2023-04-21T08:03:30.359Z,12.8
2023-04-21T08:04:32.359Z,12.9
2023-04-21T08:05:36.777Z,12.9
2023-04-21T08:06:42.774Z,13
2023-04-21T08:07:44.477Z,13
2023-04-21T08:08:45.634Z,13
2023-04-21T08:09:46.604Z,13.1
2023-04-21T08:10:47.687Z,13.1
2023-04-21T08:11:48.764Z,13.2
2023-04-21T08:12:49.926Z,13.2
2023-04-21T08:13:50.950Z,13.3
2023-04-21T08:14:51.922Z,13.3
2023-04-21T08:15:53.080Z,13.3
2023-04-21T08:16:56.677Z,13.4
2023-04-21T08:17:58.576Z,13.4
2023-04-21T08:18:59.932Z,13.5
2023-04-21T08:20:00.878Z,13.5
2023-04-21T08:21:01.878Z,13.5
2023-04-21T08:22:03.067Z,13.6
2023-04-21T08:23:04.235Z,13.6
2023-04-21T08:24:05.677Z,13.7
2023-04-21T08:25:06.972Z,13.7
2023-04-21T08:26:08.169Z,13.7
2023-04-21T08:27:09.167Z,13.8
2023-04-21T08:28:10.294Z,13.8
2023-04-21T08:29:11.477Z,13.9
2023-04-21T08:30:12.539Z,13.9
2023-04-21T08:31:13.859Z,14
2023-04-21T08:32:15.019Z,14
2023-04-21T08:33:16.206Z,14
2023-04-21T08:34:17.673Z,14.1
2023-04-21T08:35:21.526Z,14.1
2023-04-21T08:36:29.226Z,14.1
2023-04-21T08:37:31.450Z,14.2
2023-04-21T08:38:32.640Z,14.2
2023-04-21T08:39:33.909Z,14.3
2023-04-21T08:40:35.074Z,14.3
2023-04-21T08:41:36.410Z,14.4
2023-04-21T08:42:37.915Z,14.4
2023-04-21T08:43:39.043Z,14.5
2023-04-21T08:44:40.213Z,14.5
2023-04-21T08:45:41.412Z,14.6
2023-04-21T08:46:42.428Z,14.6
2023-04-21T08:47:43.291Z,14.6
2023-04-21T08:48:44.318Z,14.7
2023-04-21T08:49:45.574Z,14.7
2023-04-21T08:50:46.745Z,14.8
2023-04-21T08:51:47.710Z,14.8
2023-04-21T08:52:48.903Z,14.8
2023-04-21T08:53:50.063Z,14.9
2023-04-21T08:54:51.227Z,14.9
2023-04-21T08:56:03.617Z,15
2023-04-21T08:57:15.604Z,15
2023-04-21T08:58:17.317Z,15
2023-04-21T08:59:18.758Z,15.1
2023-04-21T09:00:20.761Z,15.1
2023-04-21T09:01:22.064Z,15.1
2023-04-21T09:02:23.663Z,15.2
2023-04-21T09:03:26.176Z,15.2
2023-04-21T09:04:28.501Z,15.2
2023-04-21T09:05:30.428Z,15.3
2023-04-21T09:06:32.600Z,15.3
2023-04-21T09:07:33.929Z,15.4
2023-04-21T09:08:35.119Z,15.4
2023-04-21T09:09:36.261Z,15.4
2023-04-21T09:10:37.538Z,15.5
2023-04-21T09:11:38.714Z,15.5
2023-04-21T09:12:39.565Z,15.6
2023-04-21T09:13:40.609Z,15.6
2023-04-21T09:14:41.740Z,15.6
2023-04-21T09:15:42.935Z,15.7
2023-04-21T09:16:44.478Z,15.7
2023-04-21T09:17:45.849Z,15.7
2023-04-21T09:18:47.133Z,15.8
2023-04-21T09:19:48.290Z,15.8
2023-04-21T09:20:49.455Z,15.9
2023-04-21T09:21:50.626Z,15.9
2023-04-21T09:22:51.513Z,15.9
2023-04-21T09:23:52.543Z,16
2023-04-21T09:24:53.679Z,16
2023-04-21T09:25:54.850Z,16
2023-04-21T09:26:56.015Z,16.1
2023-04-21T09:27:57.223Z,16.1
2023-04-21T09:28:58.364Z,16.1
2023-04-21T09:29:59.520Z,16.2
2023-04-21T09:31:00.709Z,16.2
2023-04-21T09:32:01.963Z,16.2
2023-04-21T09:33:06.267Z,16.2
2023-04-21T09:34:35.063Z,16.3
2023-04-21T09:35:36.218Z,16.3
2023-04-21T09:36:37.386Z,16.4
2023-04-21T09:37:38.593Z,16.4
2023-04-21T09:38:39.709Z,16.4
2023-04-21T09:39:49.528Z,16.4
2023-04-21T09:41:06.085Z,16.5
2023-04-21T09:42:07.285Z,16.5
2023-04-21T09:43:08.468Z,16.6
2023-04-21T09:44:09.595Z,16.6
2023-04-21T09:45:28.803Z,16.6
2023-04-21T09:46:41.614Z,16.7
2023-04-21T09:47:43.037Z,16.7
2023-04-21T09:48:44.135Z,16.7
2023-04-21T09:49:45.304Z,16.8
2023-04-21T09:52:25.238Z,16.9
2023-04-21T09:53:26.403Z,16.9
2023-04-21T09:54:29.942Z,16.9
2023-04-21T09:55:31.376Z,16.9
2023-04-21T09:56:32.516Z,17
2023-04-21T09:57:33.681Z,17
2023-04-21T09:58:34.887Z,17
2023-04-21T09:59:36.043Z,17.1
2023-04-21T10:00:37.157Z,17.1
2023-04-21T10:01:38.179Z,17.1
2023-04-21T10:02:39.698Z,17.1
2023-04-21T10:03:41.337Z,17.2
2023-04-21T10:04:43.331Z,17.2
2023-04-21T10:05:45.682Z,17.2
2023-04-21T10:06:47.155Z,17.3
2023-04-21T10:07:48.131Z,17.3
2023-04-21T10:08:52.226Z,17.3
2023-04-21T10:09:53.392Z,17.4
2023-04-21T10:10:54.600Z,17.4
2023-04-21T10:11:55.605Z,17.4
2023-04-21T10:12:56.852Z,17.4
2023-04-21T10:13:58.037Z,17.5
2023-04-21T10:14:59.023Z,17.5
2023-04-21T10:16:00.268Z,17.5
2023-04-21T10:17:01.307Z,17.6
2023-04-21T10:18:02.295Z,17.6
2023-04-21T10:19:03.381Z,17.6
2023-04-21T10:20:04.550Z,17.6
2023-04-21T10:21:05.547Z,17.7
2023-04-21T10:22:06.684Z,17.7
2023-04-21T10:23:07.860Z,17.7
2023-04-21T10:24:08.673Z,17.8
2023-04-21T10:25:09.859Z,17.8
2023-04-21T10:26:11.049Z,17.8
2023-04-21T10:27:12.246Z,17.8
2023-04-21T10:28:13.396Z,17.9
2023-04-21T10:29:14.581Z,17.9
2023-04-21T10:30:15.729Z,17.9
2023-04-21T10:31:16.972Z,17.9
2023-04-21T10:32:18.276Z,17.9
2023-04-21T10:33:19.238Z,18
2023-04-21T10:34:20.554Z,18
2023-04-21T10:35:22.478Z,18
2023-04-21T10:36:23.647Z,18
2023-04-21T10:37:24.609Z,18.1
2023-04-21T10:38:25.779Z,18.1
2023-04-21T10:39:26.938Z,18.1
2023-04-21T10:40:42.308Z,18.1
2023-04-21T10:41:45.636Z,18.2
2023-04-21T10:42:46.888Z,18.2
2023-04-21T10:43:49.798Z,18.2
2023-04-21T10:44:51.443Z,18.2
2023-04-21T10:45:52.585Z,18.2
2023-04-21T10:46:53.821Z,18.3
2023-04-21T10:47:54.911Z,18.3
2023-04-21T10:48:55.865Z,18.3
2023-04-21T10:49:56.877Z,18.3
2023-04-21T10:50:58.044Z,18.3
2023-04-21T10:51:59.038Z,18.3
2023-04-21T10:53:00.094Z,18.4
2023-04-21T10:54:01.252Z,18.4
2023-04-21T10:55:02.414Z,18.4
2023-04-21T10:56:03.194Z,18.4
2023-04-21T10:57:04.229Z,18.4
2023-04-21T10:58:05.375Z,18.4
2023-04-21T10:59:06.549Z,18.5
2023-04-21T11:00:07.541Z,18.5
2023-04-21T11:01:08.688Z,18.5
2023-04-21T11:02:09.698Z,18.5
2023-04-21T11:03:11.063Z,18.5
2023-04-21T11:04:12.799Z,18.6
2023-04-21T11:05:14.400Z,18.6
2023-04-21T11:06:15.692Z,18.6
2023-04-21T11:07:16.887Z,18.6
2023-04-21T11:08:18.085Z,18.6
2023-04-21T11:09:19.276Z,18.7
2023-04-21T11:10:20.427Z,18.7
2023-04-21T11:11:21.591Z,18.7
2023-04-21T11:12:22.775Z,18.7
2023-04-21T11:13:23.920Z,18.8
2023-04-21T11:14:25.082Z,18.8
2023-04-21T11:15:26.367Z,18.8
2023-04-21T11:16:27.517Z,18.8
2023-04-21T11:17:28.756Z,18.8
2023-04-21T11:18:29.932Z,18.8
2023-04-21T11:19:31.096Z,18.8
2023-04-21T11:20:32.267Z,18.9
2023-04-21T11:21:33.423Z,18.9
2023-04-21T11:22:34.597Z,18.9
2023-04-21T11:23:35.799Z,18.9
2023-04-21T11:24:36.935Z,18.9
2023-04-21T11:25:38.102Z,18.9
2023-04-21T11:26:39.265Z,18.9
2023-04-21T11:27:40.457Z,19
2023-04-21T11:28:41.613Z,19
2023-04-21T11:29:42.773Z,19
2023-04-21T11:30:43.978Z,19
2023-04-21T11:31:45.111Z,19
2023-04-21T11:32:46.362Z,19.1
2023-04-21T11:33:47.623Z,19
2023-04-21T11:34:48.815Z,19.1
2023-04-21T11:35:49.956Z,19.1
2023-04-21T11:36:51.132Z,19.1
2023-04-21T11:37:52.298Z,19.1
2023-04-21T11:38:53.457Z,19.1
2023-04-21T11:39:54.624Z,19.1
2023-04-21T11:40:55.598Z,19.2
2023-04-21T11:41:56.765Z,19.2
2023-04-21T11:42:58.012Z,19.2
2023-04-21T11:43:59.152Z,19.2
2023-04-21T11:45:00.330Z,19.2
2023-04-21T11:46:01.730Z,19.3
2023-04-21T11:47:03.086Z,19.3
2023-04-21T11:48:04.301Z,19.3
2023-04-21T11:49:05.667Z,19.3
2023-04-21T11:50:06.844Z,19.4
2023-04-21T11:51:08.007Z,19.4
2023-04-21T11:52:09.173Z,19.4
2023-04-21T11:53:10.403Z,19.4
2023-04-21T11:54:11.365Z,19.4
2023-04-21T11:55:12.534Z,19.4
2023-04-21T11:56:13.694Z,19.5
2023-04-21T11:57:14.861Z,19.5
2023-04-21T11:58:16.049Z,19.4
2023-04-21T11:59:17.202Z,19.4
2023-04-21T12:00:18.358Z,19.4
2023-04-21T12:01:19.562Z,19.5
2023-04-21T12:02:20.833Z,19.5
2023-04-21T12:03:22.481Z,19.5
2023-04-21T12:04:24.330Z,19.5
2023-04-21T12:05:26.021Z,19.5
2023-04-21T12:06:27.405Z,19.6
2023-04-21T12:07:28.704Z,19.6
2023-04-21T12:08:29.859Z,19.6
2023-04-21T12:09:31.046Z,19.6
2023-04-21T12:10:32.190Z,19.7
2023-04-21T12:11:33.356Z,19.7
2023-04-21T12:12:35.861Z,19.7
2023-04-21T12:13:37.144Z,19.7
2023-04-21T12:14:38.306Z,19.7
2023-04-21T12:15:40.286Z,19.7
2023-04-21T12:16:41.560Z,19.7
2023-04-21T12:17:42.986Z,19.7
2023-04-21T12:18:44.415Z,19.7
2023-04-21T12:19:45.584Z,19.7
2023-04-21T12:20:46.734Z,19.7
2023-04-21T12:21:47.903Z,19.8
2023-04-21T12:22:49.068Z,19.8
2023-04-21T12:23:50.236Z,19.8
2023-04-21T12:24:51.422Z,19.8
2023-04-21T12:25:52.569Z,19.9
2023-04-21T12:26:53.735Z,19.9
2023-04-21T12:27:54.913Z,19.9
2023-04-21T12:28:56.087Z,19.9
2023-04-21T12:29:57.291Z,19.9
2023-04-21T12:30:58.434Z,19.9
2023-04-21T12:31:59.779Z,19.9
2023-04-21T12:33:01.435Z,19.9
2023-04-21T12:34:02.951Z,19.9
2023-04-21T12:35:04.401Z,19.9
2023-04-21T12:36:05.549Z,19.9
2023-04-21T12:37:06.721Z,20
2023-04-21T12:38:07.882Z,20
2023-04-21T12:39:09.048Z,20
2023-04-21T12:40:10.233Z,20
2023-04-21T12:41:11.382Z,20
2023-04-21T12:42:12.557Z,20
2023-04-21T12:43:13.723Z,20.1
2023-04-21T12:44:14.879Z,20.1
2023-04-21T12:45:16.074Z,20.1
2023-04-21T12:46:17.318Z,20.1
2023-04-21T12:47:18.733Z,20.1
2023-04-21T12:48:20.018Z,20.1
2023-04-21T12:49:21.200Z,20.1
2023-04-21T12:50:22.397Z,20.1
2023-04-21T12:51:23.566Z,20.1
2023-04-21T12:52:24.701Z,20.1
2023-04-21T12:53:25.868Z,20.1
2023-04-21T12:54:28.602Z,20.1
2023-04-21T12:55:29.816Z,20.1
2023-04-21T12:56:30.951Z,20.1
2023-04-21T12:57:32.288Z,20.2
2023-04-21T12:58:33.498Z,20.2
2023-04-21T12:59:34.638Z,20.2
2023-04-21T13:00:35.833Z,20.2
2023-04-21T13:01:37.002Z,20.2
2023-04-21T13:02:38.485Z,20.2
2023-04-21T13:03:40.383Z,20.2
2023-04-21T13:04:42.017Z,20.2
2023-04-21T13:05:45.339Z,20.2
2023-04-21T13:06:47.140Z,20.2
2023-04-21T13:07:48.281Z,20.2
2023-04-21T13:08:50.197Z,20.2
2023-04-21T13:09:51.423Z,20.2
2023-04-21T13:10:54.647Z,20.3
2023-04-21T13:11:56.450Z,20.3
2023-04-21T13:12:57.611Z,20.3
2023-04-21T13:13:58.764Z,20.3
2023-04-21T13:14:59.933Z,20.3
2023-04-21T13:16:01.659Z,20.3
2023-04-21T13:17:02.808Z,20.3
2023-04-21T13:18:04.197Z,20.3
2023-04-21T13:19:05.338Z,20.3
2023-04-21T13:20:06.488Z,20.3
2023-04-21T13:21:08.212Z,20.3
2023-04-21T13:22:09.362Z,20.3
2023-04-21T13:23:10.530Z,20.3
2023-04-21T13:24:14.550Z,20.3
2023-04-21T13:25:16.027Z,20.3
2023-04-21T13:26:17.284Z,20.3
2023-04-21T13:27:18.650Z,20.3
2023-04-21T13:28:19.808Z,20.4
2023-04-21T13:29:20.979Z,20.4
2023-04-21T13:30:22.151Z,20.4
2023-04-21T13:31:23.377Z,20.4
2023-04-21T13:32:24.595Z,20.4
2023-04-21T13:33:25.806Z,20.4
2023-04-21T13:34:26.969Z,20.4
2023-04-21T13:35:28.124Z,20.4
2023-04-21T13:36:29.294Z,20.4
2023-04-21T13:37:30.450Z,20.4
2023-04-21T13:38:31.650Z,20.4
2023-04-21T13:39:33.094Z,20.4
2023-04-21T13:40:35.467Z,20.4
2023-04-21T13:41:36.642Z,20.4
2023-04-21T13:42:37.825Z,20.4
2023-04-21T13:43:38.962Z,20.4
2023-04-21T13:44:40.173Z,20.4
2023-04-21T13:45:41.300Z,20.4
2023-04-21T13:46:42.527Z,20.4
2023-04-21T13:47:44.030Z,20.4
2023-04-21T13:48:45.361Z,20.3
2023-04-21T13:49:46.511Z,20.3
2023-04-21T13:50:47.665Z,20.2
2023-04-21T13:51:48.841Z,20.2
2023-04-21T13:52:50.005Z,20.1
2023-04-21T13:53:51.192Z,20.1
2023-04-21T13:54:52.355Z,20.1
2023-04-21T13:55:53.492Z,20
2023-04-21T13:56:54.686Z,20
2023-04-21T13:57:55.879Z,20
2023-04-21T13:58:57.032Z,20
2023-04-21T13:59:58.200Z,20
2023-04-21T14:00:59.396Z,20
2023-04-21T14:02:00.641Z,20